createdAt,value
2022-09-14T00:01:21.590Z,100265.19
2022-09-14T00:03:23.759Z,100255.50
2022-09-14T00:05:27.362Z,100252.84
2022-09-14T00:07:30.696Z,100248.34
2022-09-14T00:09:34.128Z,100251.09
2022-09-14T00:11:39.657Z,100236.19
2022-09-14T00:13:45.275Z,100230.00
2022-09-14T00:15:48.658Z,100236.25
2022-09-14T00:17:51.953Z,100223.81
2022-09-14T00:19:55.224Z,100218.41
2022-09-14T00:22:00.331Z,100205.94
2022-09-14T00:24:04.264Z,100205.94
2022-09-14T00:26:09.422Z,100191.81
2022-09-14T00:28:14.071Z,100199.72
2022-09-14T00:30:17.501Z,100203.22
2022-09-14T00:32:20.821Z,100201.41
2022-09-14T00:34:24.431Z,100196.19
2022-09-14T00:36:29.530Z,100190.81
2022-09-14T00:38:32.855Z,100179.28
2022-09-14T00:40:36.470Z,100180.22
2022-09-14T00:42:40.194Z,100177.53
2022-09-14T00:45:05.485Z,100174.13
2022-09-14T00:47:09.169Z,100168.22
2022-09-14T00:49:16.606Z,100165.75
2022-09-14T00:51:22.384Z,100166.19
2022-09-14T00:53:26.136Z,100177.81
2022-09-14T00:55:29.868Z,100170.66
2022-09-14T00:57:38.481Z,100171.28
2022-09-14T00:59:43.798Z,100168.66
2022-09-14T01:01:49.387Z,100168.03
2022-09-14T01:03:53.265Z,100170.69
2022-09-14T01:06:06.027Z,100162.63
2022-09-14T01:08:23.157Z,100161.59
2022-09-14T01:10:47.090Z,100170.53
2022-09-14T01:13:00.920Z,100180.38
2022-09-14T01:15:11.549Z,100172.56
2022-09-14T01:17:23.665Z,100171.78
2022-09-14T01:19:39.664Z,100176.25
2022-09-14T01:21:43.794Z,100175.56
2022-09-14T01:23:55.202Z,100185.28
2022-09-14T01:26:40.079Z,100177.41
2022-09-14T01:28:51.963Z,100174.44
2022-09-14T01:30:57.656Z,100177.06
2022-09-14T01:33:07.103Z,100176.03
2022-09-14T01:35:17.035Z,100170.75
2022-09-14T01:37:25.973Z,100141.09
2022-09-14T01:39:32.737Z,100175.28
2022-09-14T01:41:37.815Z,100185.81
2022-09-14T01:43:44.523Z,100178.69
2022-09-14T01:45:51.963Z,100180.50
2022-09-14T01:47:59.294Z,100181.41
2022-09-14T01:50:07.239Z,100176.16
2022-09-14T01:52:15.444Z,100176.16
2022-09-14T01:54:23.368Z,100183.38
2022-09-14T01:56:32.775Z,100178.84
2022-09-14T01:58:40.585Z,100182.50
2022-09-14T02:00:46.338Z,100179.97
2022-09-14T02:02:55.538Z,100184.63
2022-09-14T02:05:07.998Z,100182.31
2022-09-14T02:07:12.033Z,100180.97
2022-09-14T02:09:19.719Z,100181.72
2022-09-14T02:11:23.026Z,100178.88
2022-09-14T02:13:27.731Z,100180.72
2022-09-14T02:15:31.119Z,100178.09
2022-09-14T02:17:34.618Z,100172.69
2022-09-14T02:19:44.612Z,100165.63
2022-09-14T02:21:47.933Z,100167.56
2022-09-14T02:23:51.448Z,100161.56
2022-09-14T02:25:55.099Z,100164.44
2022-09-14T02:27:58.366Z,100161.81
2022-09-14T02:30:01.799Z,100158.97
2022-09-14T02:32:22.203Z,100150.81
2022-09-14T02:34:38.506Z,100149.81
2022-09-14T02:36:50.453Z,100118.25
2022-09-14T02:39:00.393Z,100147.81
2022-09-14T02:41:10.937Z,100150.41
2022-09-14T02:43:25.904Z,100115.38
2022-09-14T02:45:36.387Z,100138.19
2022-09-14T02:47:48.377Z,100137.25
2022-09-14T02:49:58.567Z,100116.19
2022-09-14T02:52:09.426Z,100125.59
2022-09-14T02:54:16.873Z,100121.03
2022-09-14T02:56:21.069Z,100121.81
2022-09-14T02:58:24.408Z,100119.22
2022-09-14T03:00:27.894Z,100089.34
2022-09-14T03:02:31.262Z,100103.28
2022-09-14T03:04:34.649Z,100108.63
2022-09-14T03:06:37.933Z,100108.78
2022-09-14T03:08:42.827Z,100104.47
2022-09-14T03:10:46.487Z,100101.03
2022-09-14T03:12:49.774Z,100100.19
2022-09-14T03:14:53.145Z,100104.66
2022-09-14T03:16:56.426Z,100095.84
2022-09-14T03:18:59.731Z,100096.59
2022-09-14T03:21:04.808Z,100100.16
2022-09-14T03:23:09.054Z,100097.47
2022-09-14T03:25:14.384Z,100093.03
2022-09-14T03:27:17.717Z,100092.19
2022-09-14T03:29:21.066Z,100091.28
2022-09-14T03:31:25.137Z,100079.91
2022-09-14T03:33:28.571Z,100084.13
2022-09-14T03:35:32.991Z,100083.31
2022-09-14T03:37:38.141Z,100086.09
2022-09-14T03:39:41.575Z,100084.25
2022-09-14T03:41:46.217Z,100087.84
2022-09-14T03:43:50.220Z,100083.44
2022-09-14T03:45:53.543Z,100083.44
2022-09-14T03:47:56.897Z,100084.38
2022-09-14T03:50:00.187Z,100082.72
2022-09-14T03:52:04.634Z,100074.97
2022-09-14T03:54:08.581Z,100079.44
2022-09-14T03:56:13.381Z,100077.63
2022-09-14T03:58:18.014Z,100090.03
2022-09-14T04:00:21.366Z,100084.81
2022-09-14T04:02:24.726Z,100080.41
2022-09-14T04:04:28.056Z,100062.06
2022-09-14T04:06:32.691Z,100079.56
2022-09-14T04:08:39.765Z,100076.22
2022-09-14T04:10:43.038Z,100076.34
2022-09-14T04:12:46.289Z,100072.84
2022-09-14T04:14:51.189Z,100074.63
2022-09-14T04:16:58.994Z,100073.69
2022-09-14T04:19:07.156Z,100070.13
2022-09-14T04:21:15.111Z,100065.59
2022-09-14T04:23:18.430Z,100058.47
2022-09-14T04:25:23.034Z,100060.13
2022-09-14T04:27:26.369Z,100060.94
2022-09-14T04:29:30.805Z,100063.50
2022-09-14T04:31:35.981Z,100056.47
2022-09-14T04:33:40.855Z,100061.81
2022-09-14T04:35:44.136Z,100060.94
2022-09-14T04:37:47.415Z,100054.78
2022-09-14T04:39:50.745Z,100056.47
2022-09-14T04:41:54.167Z,100054.00
2022-09-14T04:43:57.963Z,100065.47
2022-09-14T04:46:03.754Z,100061.13
2022-09-14T04:48:08.672Z,100056.72
2022-09-14T04:50:12.179Z,100063.75
2022-09-14T04:52:15.504Z,100052.25
2022-09-14T04:54:19.683Z,100046.13
2022-09-14T04:56:24.142Z,100051.44
2022-09-14T04:58:28.460Z,100049.59
2022-09-14T05:00:34.088Z,100041.69
2022-09-14T05:02:41.929Z,100040.78
2022-09-14T05:04:46.653Z,100040.78
2022-09-14T05:06:51.012Z,100038.16
2022-09-14T05:08:55.514Z,100042.72
2022-09-14T05:10:59.641Z,100020.91
2022-09-14T05:13:02.979Z,100036.63
2022-09-14T05:15:07.624Z,100047.25
2022-09-14T05:17:11.101Z,100044.63
2022-09-14T05:19:17.465Z,100042.88
2022-09-14T05:21:23.301Z,100035.00
2022-09-14T05:23:26.620Z,100042.88
2022-09-14T05:25:29.901Z,100017.59
2022-09-14T05:27:33.203Z,100038.59
2022-09-14T05:29:39.547Z,100038.56
2022-09-14T05:31:43.275Z,100038.59
2022-09-14T05:33:46.986Z,100031.66
2022-09-14T05:35:51.907Z,100034.28
2022-09-14T05:37:56.559Z,100037.81
2022-09-14T05:39:59.960Z,100032.63
2022-09-14T05:42:03.295Z,100035.38
2022-09-14T05:44:07.419Z,100030.22
2022-09-14T05:46:12.646Z,100035.56
2022-09-14T05:48:16.661Z,100025.03
2022-09-14T05:50:20.001Z,100032.03
2022-09-14T05:52:23.389Z,100033.81
2022-09-14T05:54:28.649Z,100024.19
2022-09-14T05:56:32.573Z,100027.84
2022-09-14T05:58:36.374Z,100026.16
2022-09-14T06:00:40.350Z,100032.25
2022-09-14T06:02:47.543Z,100038.47
2022-09-14T06:04:50.963Z,100035.84
2022-09-14T06:07:17.010Z,100035.94
2022-09-14T06:09:17.773Z,99995.03
2022-09-14T06:11:24.442Z,100043.03
2022-09-14T06:13:27.715Z,100042.16
2022-09-14T06:15:31.014Z,100043.13
2022-09-14T06:17:34.285Z,100035.25
2022-09-14T06:19:37.564Z,100035.97
2022-09-14T06:21:41.094Z,100026.13
2022-09-14T06:23:44.869Z,100044.47
2022-09-14T06:25:48.176Z,100041.94
2022-09-14T06:27:56.051Z,100042.00
2022-09-14T06:29:59.461Z,100041.16
2022-09-14T06:32:03.073Z,100047.22
2022-09-14T06:34:06.521Z,100047.97
2022-09-14T06:36:12.886Z,100047.84
2022-09-14T06:38:16.234Z,100052.34
2022-09-14T06:40:19.662Z,100051.72
2022-09-14T06:42:22.978Z,100052.72
2022-09-14T06:44:29.993Z,99997.88
2022-09-14T06:46:35.201Z,100053.75
2022-09-14T06:48:40.420Z,100048.41
2022-09-14T06:50:43.734Z,100056.47
2022-09-14T06:52:47.016Z,100034.69
2022-09-14T06:54:50.374Z,100047.09
2022-09-14T06:56:54.283Z,100035.78
2022-09-14T06:58:58.904Z,100040.28
2022-09-14T07:01:04.523Z,100039.34
2022-09-14T07:03:08.158Z,100049.91
2022-09-14T07:05:11.745Z,100050.88
2022-09-14T07:07:16.079Z,100056.97
2022-09-14T07:09:20.908Z,100049.09
2022-09-14T07:11:26.659Z,100040.34
2022-09-14T07:13:30.505Z,100046.56
2022-09-14T07:15:34.129Z,100049.22
2022-09-14T07:17:38.825Z,100052.72
2022-09-14T07:19:43.105Z,100041.31
2022-09-14T07:21:48.075Z,100037.94
2022-09-14T07:23:51.481Z,100037.00
2022-09-14T07:26:01.736Z,100041.41
2022-09-14T07:28:05.045Z,100043.91
2022-09-14T07:30:09.652Z,100037.72
2022-09-14T07:32:12.966Z,100035.13
2022-09-14T07:34:18.307Z,100037.75
2022-09-14T07:36:22.950Z,100029.88
2022-09-14T07:38:41.693Z,100028.13
2022-09-14T07:40:49.664Z,100035.13
2022-09-14T07:42:57.482Z,100025.31
2022-09-14T07:45:01.190Z,100024.38
2022-09-14T07:47:05.079Z,100028.72
2022-09-14T07:49:09.441Z,100028.56
2022-09-14T07:51:14.514Z,100031.16
2022-09-14T07:53:18.005Z,100031.22
2022-09-14T07:55:21.371Z,100032.97
2022-09-14T07:57:45.450Z,100024.22
2022-09-14T07:59:48.137Z,100021.72
2022-09-14T08:01:51.686Z,100024.34
2022-09-14T08:03:55.154Z,100015.56
2022-09-14T08:06:02.183Z,100017.22
2022-09-14T08:08:06.890Z,100011.84
2022-09-14T08:10:10.413Z,100026.81
2022-09-14T08:12:16.163Z,99982.50
2022-09-14T08:14:19.522Z,100006.09
2022-09-14T08:16:23.672Z,100013.97
2022-09-14T08:18:27.011Z,100007.78
2022-09-14T08:20:30.246Z,100012.16
2022-09-14T08:22:33.473Z,100014.88
2022-09-14T08:24:38.618Z,100014.84
2022-09-14T08:26:41.840Z,100020.03
2022-09-14T08:28:45.828Z,100019.81
2022-09-14T08:30:49.157Z,100021.56
2022-09-14T08:32:52.404Z,100019.84
2022-09-14T08:34:55.609Z,100018.97
2022-09-14T08:36:58.859Z,100014.72
2022-09-14T08:39:02.648Z,100021.75
2022-09-14T08:41:13.236Z,100020.03
2022-09-14T08:43:17.010Z,100012.06
2022-09-14T08:45:20.348Z,100016.34
2022-09-14T08:47:29.078Z,100022.50
2022-09-14T08:49:49.345Z,99999.94
2022-09-14T08:51:53.198Z,100027.06
2022-09-14T08:53:59.369Z,100024.38
2022-09-14T08:56:10.467Z,100031.47
2022-09-14T08:58:27.375Z,99991.25
2022-09-14T09:00:40.125Z,100028.75
2022-09-14T09:03:17.323Z,100038.44
2022-09-14T09:05:34.036Z,100036.75
2022-09-14T09:07:45.669Z,100028.97
2022-09-14T09:09:51.112Z,100039.47
2022-09-14T09:11:56.523Z,100024.66
2022-09-14T09:14:05.228Z,100037.72
2022-09-14T09:16:11.392Z,100037.69
2022-09-14T09:18:20.735Z,100043.56
2022-09-14T09:20:27.561Z,100035.78
2022-09-14T09:22:36.060Z,100037.41
2022-09-14T09:24:42.881Z,100034.03
2022-09-14T09:26:46.088Z,100050.69
2022-09-14T09:28:52.467Z,100052.50
2022-09-14T09:31:01.367Z,100056.00
2022-09-14T09:33:23.212Z,100040.97
2022-09-14T09:35:52.907Z,100047.09
2022-09-14T09:38:00.862Z,100046.22
2022-09-14T09:40:14.205Z,100032.34
2022-09-14T09:42:23.891Z,100023.38
2022-09-14T09:44:27.534Z,100018.84
2022-09-14T09:46:34.525Z,99981.09
2022-09-14T09:48:42.926Z,100028.31
2022-09-14T09:50:52.545Z,100034.50
2022-09-14T09:53:00.320Z,100031.88
2022-09-14T09:55:08.209Z,100034.66
2022-09-14T09:57:23.012Z,100037.25
2022-09-14T09:59:35.238Z,100034.47
2022-09-14T10:01:40.163Z,100031.78
2022-09-14T10:03:43.588Z,100025.75
2022-09-14T10:05:47.004Z,100000.56
2022-09-14T10:07:57.148Z,100025.00
2022-09-14T10:10:02.430Z,100030.38
2022-09-14T10:12:06.569Z,100027.88
2022-09-14T10:14:24.244Z,100033.19
2022-09-14T10:16:33.179Z,100022.72
2022-09-14T10:18:48.836Z,100015.75
2022-09-14T10:21:17.048Z,100007.84
2022-09-14T10:23:26.229Z,100009.47
2022-09-14T10:25:29.539Z,100021.75
2022-09-14T10:27:38.238Z,100025.41
2022-09-14T10:29:43.952Z,100023.72
2022-09-14T10:31:49.143Z,100022.91
2022-09-14T10:33:56.897Z,100023.81
2022-09-14T10:36:09.693Z,100027.41
2022-09-14T10:38:28.199Z,100011.63
2022-09-14T10:40:38.057Z,100009.66
2022-09-14T10:42:49.036Z,100009.56
2022-09-14T10:45:14.536Z,100006.94
2022-09-14T10:47:42.940Z,100006.94
2022-09-14T10:50:00.364Z,99990.31
2022-09-14T10:52:14.001Z,99990.13
2022-09-14T10:54:40.936Z,99996.25
2022-09-14T10:56:57.087Z,99993.56
2022-09-14T10:59:16.306Z,100005.97
2022-09-14T11:01:32.168Z,100012.25
2022-09-14T11:03:53.059Z,100009.84
2022-09-14T11:06:09.017Z,100021.25
2022-09-14T11:08:21.965Z,100011.63
2022-09-14T11:10:32.156Z,100020.34
2022-09-14T11:12:40.962Z,100008.91
2022-09-14T11:14:57.546Z,100002.72
2022-09-14T11:17:12.644Z,100013.94
2022-09-14T11:19:25.662Z,99999.06
2022-09-14T11:21:42.786Z,99992.78
2022-09-14T11:23:52.416Z,99984.81
2022-09-14T11:26:00.881Z,99960.28
2022-09-14T11:28:11.192Z,99976.78
2022-09-14T11:30:18.893Z,99980.16
2022-09-14T11:32:26.323Z,99988.03
2022-09-14T11:34:34.206Z,99990.66
2022-09-14T11:36:44.579Z,99986.31
2022-09-14T11:38:51.334Z,99963.84
2022-09-14T11:41:01.679Z,99983.78
2022-09-14T11:43:12.381Z,99945.50
2022-09-14T11:45:21.456Z,99975.09
2022-09-14T11:47:26.185Z,99956.56
2022-09-14T11:49:42.311Z,99969.59
2022-09-14T11:51:50.320Z,99979.03
2022-09-14T11:53:53.996Z,99977.09
2022-09-14T11:55:57.543Z,99949.66
2022-09-14T11:58:01.991Z,99958.94
2022-09-14T12:00:09.925Z,99970.34
2022-09-14T12:02:50.792Z,99965.06
2022-09-14T12:05:29.866Z,99976.28
2022-09-14T12:08:02.461Z,99977.13
2022-09-14T12:10:19.545Z,99974.31
2022-09-14T12:12:44.665Z,99946.44
2022-09-14T12:14:48.052Z,99955.22
2022-09-14T12:17:28.478Z,99961.44
2022-09-14T12:19:31.935Z,99964.34
2022-09-14T12:21:35.290Z,99960.75
2022-09-14T12:23:51.784Z,99952.91
2022-09-14T12:26:36.825Z,99967.97
2022-09-14T12:28:48.047Z,99945.41
2022-09-14T12:31:11.089Z,99957.53
2022-09-14T12:33:42.995Z,99966.25
2022-09-14T12:35:48.035Z,99969.06
2022-09-14T12:37:51.383Z,99956.13
2022-09-14T12:40:36.462Z,99957.72
2022-09-14T12:42:39.940Z,99971.00
2022-09-14T12:44:44.265Z,99963.16
2022-09-14T12:46:47.660Z,99961.44
2022-09-14T12:49:02.612Z,99956.13
2022-09-14T12:51:06.997Z,99952.59
2022-09-14T12:53:33.025Z,99941.13
2022-09-14T12:55:55.604Z,99947.16
2022-09-14T12:58:08.631Z,99946.28
2022-09-14T13:00:15.617Z,99948.13
2022-09-14T13:02:47.503Z,99935.88
2022-09-14T13:04:55.160Z,99938.72
2022-09-14T13:07:01.508Z,99937.06
2022-09-14T13:09:09.458Z,99944.94
2022-09-14T13:11:22.265Z,99921.03
2022-09-14T13:13:31.549Z,99912.84
2022-09-14T13:15:38.352Z,99911.91
2022-09-14T13:17:57.409Z,99910.09
2022-09-14T13:20:03.637Z,99910.25
2022-09-14T13:22:21.484Z,99896.94
2022-09-14T13:24:28.522Z,99878.97
2022-09-14T13:26:34.187Z,99886.78
2022-09-14T13:28:37.570Z,99891.38
2022-09-14T13:30:43.111Z,99902.28
2022-09-14T13:32:51.748Z,99917.34
2022-09-14T13:34:56.058Z,99920.25
2022-09-14T13:37:00.780Z,99921.25
2022-09-14T13:39:05.109Z,99920.59
2022-09-14T13:41:12.630Z,99928.41
2022-09-14T13:43:18.856Z,99926.72
2022-09-14T13:45:23.607Z,99918.78
2022-09-14T13:47:27.712Z,99919.72
2022-09-14T13:49:31.689Z,99907.63
2022-09-14T13:51:35.588Z,99933.03
2022-09-14T13:53:41.814Z,99932.34
2022-09-14T13:55:45.686Z,99938.47
2022-09-14T13:58:14.694Z,99908.72
2022-09-14T14:00:22.115Z,99910.00
2022-09-14T14:02:28.111Z,99903.72
2022-09-14T14:04:35.492Z,99918.47
2022-09-14T14:06:39.434Z,99907.03
2022-09-14T14:08:42.833Z,99911.16
2022-09-14T14:10:49.384Z,99911.47
2022-09-14T14:12:53.173Z,99908.16
2022-09-14T14:14:58.807Z,99879.50
2022-09-14T14:17:26.677Z,99906.63
2022-09-14T14:19:31.990Z,99899.69
2022-09-14T14:21:35.671Z,99914.63
2022-09-14T14:23:56.362Z,99923.44
2022-09-14T14:26:10.876Z,99912.28
2022-09-14T14:28:19.018Z,99913.25
2022-09-14T14:30:23.256Z,99862.72
2022-09-14T14:32:29.027Z,99865.50
2022-09-14T14:34:32.439Z,99919.50
2022-09-14T14:36:36.147Z,99920.41
2022-09-14T14:38:40.737Z,99906.31
2022-09-14T14:40:46.051Z,99889.56
2022-09-14T14:42:50.318Z,99901.81
2022-09-14T14:44:53.586Z,99916.69
2022-09-14T14:46:58.054Z,99929.81
2022-09-14T14:49:02.785Z,99917.56
2022-09-14T14:51:07.143Z,99921.91
2022-09-14T14:53:10.552Z,99918.47
2022-09-14T14:55:14.041Z,99914.97
2022-09-14T14:57:17.408Z,99913.19
2022-09-14T14:59:29.363Z,99909.69
2022-09-14T15:01:33.005Z,99907.22
2022-09-14T15:03:36.467Z,99903.72
2022-09-14T15:05:43.045Z,99890.47
2022-09-14T15:07:47.598Z,99895.72
2022-09-14T15:09:50.935Z,99888.63
2022-09-14T15:11:55.256Z,99857.25
2022-09-14T15:13:58.717Z,99870.31
2022-09-14T15:16:02.706Z,99865.91
2022-09-14T15:18:06.605Z,99851.88
2022-09-14T15:20:10.493Z,99845.59
2022-09-14T15:22:15.222Z,99844.53
2022-09-14T15:24:18.841Z,99849.72
2022-09-14T15:26:22.178Z,99860.22
2022-09-14T15:28:25.770Z,99858.50
2022-09-14T15:30:29.190Z,99868.81
2022-09-14T15:32:32.844Z,99866.25
2022-09-14T15:34:36.218Z,99899.53
2022-09-14T15:36:42.290Z,99903.84
2022-09-14T15:38:47.011Z,99888.88
2022-09-14T15:40:50.426Z,99894.81
2022-09-14T15:42:53.922Z,99901.75
2022-09-14T15:44:57.307Z,99899.97
2022-09-14T15:47:01.228Z,99905.28
2022-09-14T15:49:07.459Z,99894.59
2022-09-14T15:51:12.152Z,99889.31
2022-09-14T15:53:17.436Z,99887.66
2022-09-14T15:55:22.474Z,99900.06
2022-09-14T15:57:25.735Z,99899.28
2022-09-14T15:59:29.665Z,99887.94
2022-09-14T16:01:33.983Z,99900.22
2022-09-14T16:03:37.467Z,99898.59
2022-09-14T16:05:41.144Z,99904.81
2022-09-14T16:07:44.496Z,99904.88
2022-09-14T16:09:47.827Z,99907.50
2022-09-14T16:11:52.606Z,99905.69
2022-09-14T16:13:56.044Z,99905.72
2022-09-14T16:16:05.269Z,99893.38
2022-09-14T16:18:09.022Z,99888.88
2022-09-14T16:20:12.774Z,99891.50
2022-09-14T16:22:16.136Z,99894.19
2022-09-14T16:24:20.631Z,99896.78
2022-09-14T16:26:25.867Z,99902.84
2022-09-14T16:28:30.575Z,99905.47
2022-09-14T16:30:34.146Z,99879.34
2022-09-14T16:32:37.546Z,99903.06
2022-09-14T16:34:40.878Z,99911.94
2022-09-14T16:36:45.467Z,99919.91
2022-09-14T16:38:48.818Z,99925.19
2022-09-14T16:40:52.092Z,99934.88
2022-09-14T16:42:55.341Z,99933.34
2022-09-14T16:44:59.975Z,99931.72
2022-09-14T16:47:03.259Z,99935.31
2022-09-14T16:49:07.256Z,99934.53
2022-09-14T16:51:11.385Z,99940.63
2022-09-14T16:53:14.693Z,99945.72
2022-09-14T16:55:18.060Z,99956.84
2022-09-14T16:57:21.610Z,99958.66
2022-09-14T16:59:25.538Z,99953.50
2022-09-14T17:01:32.447Z,99958.97
2022-09-14T17:03:36.634Z,99956.28
2022-09-14T17:05:39.880Z,99963.97
2022-09-14T17:07:43.239Z,99955.78
2022-09-14T17:09:46.541Z,99961.25
2022-09-14T17:11:50.307Z,99962.03
2022-09-14T17:13:54.097Z,99932.09
2022-09-14T17:16:02.850Z,99962.81
2022-09-14T17:18:07.964Z,99966.34
2022-09-14T17:20:11.308Z,99965.31
2022-09-14T17:22:14.577Z,99961.97
2022-09-14T17:24:19.503Z,99962.81
2022-09-14T17:26:23.760Z,99955.13
2022-09-14T17:28:29.112Z,99959.34
2022-09-14T17:30:33.943Z,99951.66
2022-09-14T17:32:37.254Z,99943.00
2022-09-14T17:34:41.990Z,99942.31
2022-09-14T17:36:46.107Z,99942.34
2022-09-14T17:38:50.270Z,99927.44
2022-09-14T17:40:54.055Z,99940.63
2022-09-14T17:42:57.517Z,99936.31
2022-09-14T17:45:00.862Z,99938.06
2022-09-14T17:47:04.363Z,99936.41
2022-09-14T17:49:13.472Z,99929.41
2022-09-14T17:51:20.522Z,99937.31
2022-09-14T17:53:23.901Z,99939.13
2022-09-14T17:55:27.413Z,99943.56
2022-09-14T17:57:30.819Z,99947.06
2022-09-14T17:59:34.152Z,99949.72
2022-09-14T18:01:37.539Z,99954.19
2022-09-14T18:03:42.391Z,99956.06
2022-09-14T18:05:55.408Z,99968.47
2022-09-14T18:08:00.228Z,99965.84
2022-09-14T18:10:03.694Z,99973.81
2022-09-14T18:12:07.543Z,99973.88
2022-09-14T18:14:12.709Z,99973.91
2022-09-14T18:16:18.450Z,99980.78
2022-09-14T18:18:21.790Z,99969.34
2022-09-14T18:20:25.412Z,99979.94
2022-09-14T18:22:28.930Z,99974.69
2022-09-14T18:24:33.761Z,99979.97
2022-09-14T18:26:38.409Z,99973.78
2022-09-14T18:28:41.683Z,99977.34
2022-09-14T18:30:44.996Z,99973.84
2022-09-14T18:32:52.823Z,99971.28
2022-09-14T18:34:58.916Z,99978.34
2022-09-14T18:37:02.654Z,99981.88
2022-09-14T18:39:06.334Z,99991.50
2022-09-14T18:41:12.619Z,99990.63
2022-09-14T18:43:17.106Z,100002.09
2022-09-14T18:45:20.546Z,99996.00
2022-09-14T18:47:24.112Z,100001.38
2022-09-14T18:49:27.480Z,99997.84
2022-09-14T18:51:33.356Z,99995.19
2022-09-14T18:53:37.082Z,99991.53
2022-09-14T18:55:40.519Z,99989.84
2022-09-14T18:57:48.090Z,99994.25
2022-09-14T18:59:51.442Z,99986.38
2022-09-14T19:01:54.817Z,99997.81
2022-09-14T19:03:58.153Z,99995.09
2022-09-14T19:06:05.673Z,100001.19
2022-09-14T19:08:09.986Z,100017.06
2022-09-14T19:10:14.147Z,100010.13
2022-09-14T19:12:17.719Z,100005.81
2022-09-14T19:14:22.538Z,100011.91
2022-09-14T19:16:25.955Z,100012.00
2022-09-14T19:18:29.332Z,100006.78
2022-09-14T19:20:55.055Z,100028.75
2022-09-14T19:22:56.316Z,100012.94
2022-09-14T19:24:59.753Z,100016.44
2022-09-14T19:27:03.364Z,99998.84
2022-09-14T19:29:07.637Z,100016.41
2022-09-14T19:31:14.758Z,100015.56
2022-09-14T19:33:18.167Z,100026.09
2022-09-14T19:35:21.573Z,100006.84
2022-09-14T19:37:24.946Z,100017.28
2022-09-14T19:39:28.391Z,100015.59
2022-09-14T19:41:33.012Z,100026.97
2022-09-14T19:43:36.596Z,100022.56
2022-09-14T19:45:40.208Z,100026.13
2022-09-14T19:47:45.154Z,100029.59
2022-09-14T19:49:49.958Z,100029.56
2022-09-14T19:51:53.841Z,100020.78
2022-09-14T19:54:00.386Z,100020.78
2022-09-14T19:56:06.396Z,100027.56
2022-09-14T19:58:09.763Z,100029.25
2022-09-14T20:00:18.060Z,100021.97
2022-09-14T20:02:21.698Z,100030.53
2022-09-14T20:04:26.466Z,100026.03
2022-09-14T20:06:31.959Z,100025.13
2022-09-14T20:08:36.398Z,100032.19
2022-09-14T20:10:39.802Z,100033.88
2022-09-14T20:12:43.111Z,100028.84
2022-09-14T20:14:46.391Z,100034.22
2022-09-14T20:16:52.470Z,100026.28
2022-09-14T20:18:57.331Z,100037.88
2022-09-14T20:21:02.096Z,100032.66
2022-09-14T20:23:05.872Z,100031.88
2022-09-14T20:25:10.090Z,100035.47
2022-09-14T20:27:13.928Z,100037.31
2022-09-14T20:29:18.992Z,100019.06
2022-09-14T20:31:23.170Z,100048.75
2022-09-14T20:33:26.606Z,100048.78
2022-09-14T20:35:30.063Z,100049.66
2022-09-14T20:37:34.771Z,100046.22
2022-09-14T20:39:38.262Z,100056.84
2022-09-14T20:41:41.808Z,100046.31
2022-09-14T20:43:48.833Z,100056.00
2022-09-14T20:46:00.050Z,100055.09
2022-09-14T20:48:03.875Z,100044.59
2022-09-14T20:50:07.786Z,100053.31
2022-09-14T20:52:11.101Z,100054.22
2022-09-14T20:54:17.651Z,100043.56
2022-09-14T20:56:22.900Z,100055.59
2022-09-14T20:58:26.239Z,100050.19
2022-09-14T21:00:29.529Z,100051.94
2022-09-14T21:02:33.018Z,100054.69
2022-09-14T21:04:36.660Z,100052.97
2022-09-14T21:06:42.848Z,100065.31
2022-09-14T21:08:46.776Z,100068.91
2022-09-14T21:10:51.478Z,100070.72
2022-09-14T21:12:54.832Z,100066.34
2022-09-14T21:14:58.134Z,100067.25
2022-09-14T21:17:01.650Z,100065.53
2022-09-14T21:19:06.811Z,100067.28
2022-09-14T21:21:12.641Z,100073.47
2022-09-14T21:23:15.955Z,100068.25
2022-09-14T21:25:19.370Z,100075.28
2022-09-14T21:27:24.077Z,100081.44
2022-09-14T21:29:27.485Z,100072.66
2022-09-14T21:31:30.952Z,100080.56
2022-09-14T21:33:36.058Z,100082.34
2022-09-14T21:35:39.421Z,100077.13
2022-09-14T21:37:46.771Z,100081.50
2022-09-14T21:39:50.621Z,100081.53
2022-09-14T21:41:58.861Z,100077.97
2022-09-14T21:44:05.090Z,100091.19
2022-09-14T21:46:09.926Z,100087.72
2022-09-14T21:48:13.309Z,100086.84
2022-09-14T21:50:17.051Z,100093.84
2022-09-14T21:52:20.356Z,100092.09
2022-09-14T21:54:23.991Z,100098.19
2022-09-14T21:56:29.663Z,100095.53
2022-09-14T21:58:33.483Z,100092.91
2022-09-14T22:00:38.285Z,100095.53
2022-09-14T22:02:41.590Z,100093.78
2022-09-14T22:04:44.931Z,100094.72
2022-09-14T22:06:51.177Z,100098.22
2022-09-14T22:08:54.964Z,100101.75
2022-09-14T22:11:03.801Z,100091.28
2022-09-14T22:13:07.117Z,100101.78
2022-09-14T22:15:11.397Z,100076.41
2022-09-14T22:17:16.376Z,100098.28
2022-09-14T22:19:21.644Z,100100.03
2022-09-14T22:21:27.122Z,100106.19
2022-09-14T22:23:31.186Z,100105.31
2022-09-14T22:25:34.566Z,100115.84
2022-09-14T22:27:40.140Z,100108.84
2022-09-14T22:29:43.847Z,100114.97
2022-09-14T22:31:47.772Z,100127.25
2022-09-14T22:33:54.444Z,100105.38
2022-09-14T22:36:02.027Z,100133.38
2022-09-14T22:38:06.272Z,100128.97
2022-09-14T22:40:10.757Z,100131.63
2022-09-14T22:42:14.192Z,100129.91
2022-09-14T22:44:17.563Z,100139.53
2022-09-14T22:46:22.314Z,100135.16
2022-09-14T22:48:26.168Z,100130.78
2022-09-14T22:50:30.820Z,100127.28
2022-09-14T22:52:34.122Z,100136.06
2022-09-14T22:54:37.517Z,100136.03
2022-09-14T22:56:41.167Z,100133.44
2022-09-14T22:58:45.327Z,100124.69
2022-09-14T23:00:49.497Z,100136.03
2022-09-14T23:02:52.918Z,100136.06
2022-09-14T23:04:56.652Z,100135.19
2022-09-14T23:07:01.487Z,100142.19
2022-09-14T23:09:05.629Z,100148.34
2022-09-14T23:11:11.735Z,100135.19
2022-09-14T23:13:15.315Z,100147.44
2022-09-14T23:15:18.681Z,100141.31
2022-09-14T23:17:23.894Z,100144.84
2022-09-14T23:19:27.371Z,100146.63
2022-09-14T23:21:32.485Z,100152.72
2022-09-14T23:23:38.973Z,100147.47
2022-09-14T23:25:42.576Z,100098.44
2022-09-14T23:27:45.847Z,100149.22
2022-09-14T23:29:49.847Z,100145.72
2022-09-14T23:31:53.164Z,100146.59
2022-09-14T23:34:02.126Z,100154.47
2022-09-14T23:36:05.709Z,100159.72
2022-09-14T23:38:08.990Z,100165.88
2022-09-14T23:40:13.926Z,100156.22
2022-09-14T23:42:17.275Z,100163.25
2022-09-14T23:44:20.568Z,100165.00
2022-09-14T23:46:24.087Z,100175.50
2022-09-14T23:48:27.506Z,100166.72
2022-09-14T23:50:31.621Z,100174.63
2022-09-14T23:52:34.907Z,100165.84
2022-09-14T23:54:38.231Z,100174.63
2022-09-14T23:56:44.593Z,100170.22
2022-09-14T23:58:47.861Z,100166.72
